Time;durP1;ratioP1;P1;durP2;ratioP2;P2;SDS_P1;SDS_P2;PMS_P1;PMS_P2;Temp;Humidity;BMP_temperature;BMP_pressure;BME280_temperature;BME280_humidity;BME280_pressure;Samples;Min_cycle;Max_cycle;Signal;HPM_P1;HPM_P2
2021/08/08 00:02:04;;;;;;;0.10;0.10;;;15.00;99.90;;;;;;4957294;28;20383;-71
2021/08/08 00:04:30;;;;;;;0.10;0.10;;;15.20;99.90;;;;;;4957291;28;20026;-71
2021/08/08 00:06:55;;;;;;;0.10;0.10;;;15.40;99.90;;;;;;4957361;28;20089;-72
2021/08/08 00:09:21;;;;;;;0.08;0.08;;;15.40;99.90;;;;;;4974621;28;20557;-71
2021/08/08 00:11:47;;;;;;;0.20;0.20;;;15.30;99.90;;;;;;4974561;28;20030;-72
2021/08/08 00:14:13;;;;;;;0.10;0.10;;;15.10;99.90;;;;;;4974447;28;20023;-72
2021/08/08 00:16:38;;;;;;;0.10;0.10;;;14.90;99.90;;;;;;4957283;28;20567;-71
2021/08/08 00:19:04;;;;;;;0.10;0.10;;;14.90;99.90;;;;;;4941287;28;20392;-71
2021/08/08 00:21:30;;;;;;;0.15;0.15;;;15.00;99.90;;;;;;4941033;28;20054;-71
2021/08/08 00:23:55;;;;;;;0.10;0.10;;;15.00;99.90;;;;;;4940997;28;20042;-71
2021/08/08 00:26:21;;;;;;;0.10;0.10;;;15.10;99.90;;;;;;4956761;28;20482;-72
2021/08/08 00:28:48;;;;;;;0.00;0.00;;;15.20;99.90;;;;;;4956908;28;20026;-72
2021/08/08 00:31:16;;;;;;;0.30;0.30;;;15.40;99.90;;;;;;4974275;28;20058;-71
2021/08/08 00:33:43;;;;;;;0.10;0.10;;;15.40;99.90;;;;;;4940949;28;20080;-72
2021/08/08 00:36:08;;;;;;;0.10;0.10;;;15.60;99.90;;;;;;4974211;28;20045;-72
2021/08/08 00:38:34;;;;;;;0.03;0.03;;;15.70;99.90;;;;;;4956935;28;20031;-72
2021/08/08 00:41:00;;;;;;;0.20;0.20;;;15.80;99.90;;;;;;4940993;28;20026;-72
2021/08/08 00:43:25;;;;;;;0.17;0.17;;;15.80;99.90;;;;;;4956593;28;20037;-71
2021/08/08 00:45:51;;;;;;;0.10;0.10;;;15.80;99.90;;;;;;4956511;28;20035;-71
2021/08/08 00:48:17;;;;;;;0.10;0.10;;;15.60;99.90;;;;;;4956636;28;20027;-72
2021/08/08 00:50:43;;;;;;;0.17;0.17;;;15.60;99.90;;;;;;4956469;28;20029;-72
2021/08/08 00:53:09;;;;;;;0.00;0.00;;;15.60;99.90;;;;;;4956448;28;20023;-72
2021/08/08 00:55:35;;;;;;;0.00;0.00;;;15.60;99.90;;;;;;4956252;28;20516;-72
2021/08/08 00:58:00;;;;;;;0.10;0.10;;;15.60;99.90;;;;;;4973831;28;20496;-72
2021/08/08 01:00:26;;;;;;;0.10;0.10;;;15.60;99.90;;;;;;4956514;28;20502;-71
2021/08/08 01:02:57;;;;;;;0.00;0.00;;;15.50;99.90;;;;;;4972913;28;20022;-72
2021/08/08 01:05:30;;;;;;;0.10;0.10;;;15.50;99.90;;;;;;4973658;28;20041;-72
2021/08/08 01:08:02;;;;;;;0.10;0.10;;;15.40;99.90;;;;;;4940210;28;20034;-72
2021/08/08 01:10:28;;;;;;;0.10;0.10;;;15.50;99.90;;;;;;4973434;28;20062;-72
2021/08/08 01:12:55;;;;;;;0.08;0.08;;;15.30;99.90;;;;;;4956101;28;20506;-72
2021/08/08 01:15:22;;;;;;;0.10;0.10;;;15.10;99.90;;;;;;4973404;28;20101;-72
2021/08/08 01:17:49;;;;;;;0.10;0.10;;;15.20;99.90;;;;;;4956434;28;20077;-72
2021/08/08 01:20:15;;;;;;;0.10;0.10;;;15.30;99.90;;;;;;4940060;28;20386;-71
2021/08/08 01:22:51;;;;;;;0.10;0.10;;;15.40;99.90;;;;;;4956049;28;20508;-71
2021/08/08 01:25:17;;;;;;;0.20;0.20;;;15.30;99.90;;;;;;4955855;28;20549;-71
2021/08/08 01:27:43;;;;;;;0.10;0.10;;;15.20;99.90;;;;;;4973386;28;20019;-71
2021/08/08 01:30:11;;;;;;;0.30;0.30;;;15.10;99.90;;;;;;4973290;28;20045;-71
2021/08/08 01:32:37;;;;;;;0.05;0.05;;;15.10;99.90;;;;;;4973253;28;20479;-71
2021/08/08 01:35:04;;;;;;;0.10;0.10;;;15.00;99.90;;;;;;4973009;28;20078;-72
2021/08/08 01:37:31;;;;;;;0.10;0.10;;;15.10;99.90;;;;;;4973405;28;20549;-72
2021/08/08 01:40:15;;;;;;;0.10;0.10;;;15.10;99.90;;;;;;4939815;28;20026;-72
2021/08/08 01:42:42;;;;;;;0.30;0.30;;;15.00;99.90;;;;;;4973155;28;20033;-72
2021/08/08 01:45:12;;;;;;;0.20;0.20;;;14.90;99.90;;;;;;4972909;28;20019;-71
2021/08/08 01:47:41;;;;;;;0.03;0.03;;;14.80;99.90;;;;;;4973053;28;20106;-72
2021/08/08 01:50:08;;;;;;;3.03;0.50;;;14.80;99.90;;;;;;4972994;28;20494;-72
2021/08/08 01:52:37;;;;;;;0.10;0.10;;;14.70;99.90;;;;;;4955633;28;20049;-71
2021/08/08 01:55:03;;;;;;;0.10;0.10;;;14.60;99.90;;;;;;4972929;28;20411;-71
2021/08/08 01:57:29;;;;;;;0.10;0.10;;;14.70;99.90;;;;;;4973047;28;20034;-71
2021/08/08 01:59:55;;;;;;;1.77;0.30;;;14.70;99.90;;;;;;4939650;28;20031;-72
2021/08/08 02:02:21;;;;;;;1.10;0.85;;;14.80;99.90;;;;;;4939561;28;20038;-72
2021/08/08 02:04:46;;;;;;;0.10;0.10;;;14.80;99.90;;;;;;4955676;28;20059;-72
2021/08/08 02:07:15;;;;;;;0.10;0.10;;;14.80;99.90;;;;;;4939503;28;20085;-72
2021/08/08 02:09:41;;;;;;;0.10;0.10;;;14.70;99.90;;;;;;4955475;28;20368;-72
2021/08/08 02:12:07;;;;;;;0.10;0.10;;;14.90;99.90;;;;;;4972694;28;20019;-72
2021/08/08 02:14:34;;;;;;;0.03;0.03;;;15.00;99.90;;;;;;4957028;28;20323;-72
2021/08/08 02:17:00;;;;;;;0.00;0.00;;;15.00;99.90;;;;;;4959366;28;20031;-72
2021/08/08 02:19:26;;;;;;;0.00;0.00;;;15.10;99.90;;;;;;4959385;28;20035;-72
2021/08/08 02:21:52;;;;;;;0.05;0.05;;;15.20;99.90;;;;;;4976486;28;20037;-72
2021/08/08 02:24:18;;;;;;;0.00;0.00;;;15.20;99.90;;;;;;4976592;28;20031;-71
2021/08/08 02:26:44;;;;;;;0.10;0.10;;;15.10;99.90;;;;;;4943077;28;20058;-72
2021/08/08 02:29:10;;;;;;;0.10;0.10;;;14.90;99.90;;;;;;4959077;28;20550;-72
2021/08/08 02:31:41;;;;;;;0.10;0.10;;;14.90;99.90;;;;;;4976290;28;20270;-72
2021/08/08 02:34:08;;;;;;;0.08;0.08;;;14.90;99.90;;;;;;4959271;28;20051;-72
2021/08/08 02:36:34;;;;;;;0.10;0.10;;;15.00;99.90;;;;;;4958939;28;20408;-72
2021/08/08 02:39:00;;;;;;;0.13;0.13;;;14.80;99.90;;;;;;4943156;28;20041;-72
2021/08/08 02:41:26;;;;;;;0.10;0.10;;;14.80;99.90;;;;;;4976066;28;20034;-72
2021/08/08 02:43:56;;;;;;;0.10;0.10;;;14.80;99.90;;;;;;4958770;28;20035;-71
2021/08/08 02:46:22;;;;;;;0.10;0.10;;;14.70;99.90;;;;;;4958822;28;20501;-71
2021/08/08 02:48:48;;;;;;;0.00;0.00;;;14.80;99.90;;;;;;4976156;28;20019;-71
2021/08/08 02:51:15;;;;;;;0.00;0.00;;;15.00;99.90;;;;;;4976008;28;20029;-72
2021/08/08 02:53:42;;;;;;;0.00;0.00;;;15.20;99.90;;;;;;4976041;28;20399;-72
2021/08/08 02:56:07;;;;;;;0.00;0.00;;;15.30;99.90;;;;;;4958590;28;20028;-71
2021/08/08 02:58:33;;;;;;;0.60;0.60;;;15.40;99.90;;;;;;4975987;28;20430;-72
2021/08/08 03:00:59;;;;;;;0.00;0.00;;;15.50;99.90;;;;;;4958610;28;20030;-72
2021/08/08 03:03:24;;;;;;;0.10;0.10;;;15.60;99.90;;;;;;4975790;28;20147;-71
2021/08/08 03:05:50;;;;;;;0.10;0.10;;;15.60;99.90;;;;;;4958484;28;20030;-71
2021/08/08 03:08:16;;;;;;;0.10;0.10;;;15.50;99.90;;;;;;4958536;28;20041;-72
2021/08/08 03:10:42;;;;;;;0.10;0.10;;;15.40;99.90;;;;;;4975501;28;20039;-72
2021/08/08 03:13:08;;;;;;;0.00;0.00;;;15.20;99.90;;;;;;4975583;28;20074;-72
2021/08/08 03:15:34;;;;;;;0.10;0.10;;;15.20;99.90;;;;;;4975807;28;20564;-72
2021/08/08 03:17:59;;;;;;;0.10;0.10;;;15.10;99.90;;;;;;4942243;28;20062;-72
2021/08/08 03:20:25;;;;;;;0.10;0.10;;;15.10;99.90;;;;;;4958238;28;20038;-72
2021/08/08 03:22:51;;;;;;;0.08;0.08;;;15.10;99.90;;;;;;4975283;28;20097;-71
2021/08/08 03:25:17;;;;;;;0.00;0.00;;;15.10;99.90;;;;;;4975424;28;20023;-71
2021/08/08 03:27:42;;;;;;;0.10;0.10;;;15.20;99.90;;;;;;4974786;28;20402;-72
2021/08/08 03:30:09;;;;;;;0.10;0.10;;;15.20;99.90;;;;;;4958034;28;20110;-72
2021/08/08 03:32:35;;;;;;;0.10;0.10;;;15.30;99.90;;;;;;4958009;28;20022;-72
2021/08/08 03:35:04;;;;;;;0.00;0.00;;;15.30;99.90;;;;;;4957987;28;20498;-71
2021/08/08 03:37:30;;;;;;;0.10;0.10;;;15.30;99.90;;;;;;4975319;28;20034;-72
2021/08/08 03:39:55;;;;;;;0.10;0.10;;;15.40;99.90;;;;;;4975077;28;20027;-71
2021/08/08 03:42:21;;;;;;;0.10;0.10;;;15.30;99.90;;;;;;4957703;28;20506;-71
2021/08/08 03:44:47;;;;;;;0.10;0.10;;;15.30;99.90;;;;;;4957921;28;20070;-71
2021/08/08 03:47:12;;;;;;;0.03;0.03;;;15.40;99.90;;;;;;4975051;28;20026;-72
2021/08/08 03:49:38;;;;;;;0.10;0.10;;;15.40;99.90;;;;;;4957811;28;20101;-72
2021/08/08 03:52:04;;;;;;;0.10;0.10;;;15.30;99.90;;;;;;4974819;28;20390;-72
2021/08/08 03:54:30;;;;;;;0.13;0.13;;;15.40;99.90;;;;;;4974905;28;20487;-72
2021/08/08 03:56:55;;;;;;;0.10;0.10;;;15.40;99.90;;;;;;4957519;28;20023;-72
2021/08/08 03:59:21;;;;;;;0.10;0.10;;;15.30;99.90;;;;;;4975038;28;20023;-72
2021/08/08 04:01:47;;;;;;;0.10;0.10;;;15.40;99.90;;;;;;4974709;28;20129;-72
2021/08/08 04:04:13;;;;;;;0.10;0.10;;;15.40;99.90;;;;;;4974924;28;20037;-72
2021/08/08 04:06:38;;;;;;;0.00;0.00;;;15.30;99.90;;;;;;4974608;28;20031;-72
2021/08/08 04:09:04;;;;;;;0.10;0.10;;;15.30;99.90;;;;;;4941344;28;20033;-72
2021/08/08 04:11:30;;;;;;;0.10;0.10;;;15.00;99.90;;;;;;4974482;28;20546;-71
2021/08/08 04:13:55;;;;;;;0.10;0.10;;;14.90;99.90;;;;;;4957138;28;20023;-72
2021/08/08 04:16:21;;;;;;;0.10;0.10;;;15.00;99.90;;;;;;4957195;28;20379;-71
2021/08/08 04:18:47;;;;;;;0.10;0.10;;;15.10;99.90;;;;;;4974490;28;20034;-71
2021/08/08 04:21:13;;;;;;;0.10;0.10;;;15.10;99.90;;;;;;4957192;28;20034;-72
2021/08/08 04:23:39;;;;;;;0.10;0.10;;;15.10;99.90;;;;;;4940887;28;20498;-72
2021/08/08 04:26:04;;;;;;;0.10;0.10;;;15.20;99.90;;;;;;4974312;28;20042;-72
2021/08/08 04:28:30;;;;;;;0.00;0.00;;;15.40;99.90;;;;;;4956982;28;20324;-72
2021/08/08 04:30:56;;;;;;;0.10;0.10;;;15.40;99.90;;;;;;4957017;28;20030;-72
2021/08/08 04:33:22;;;;;;;0.10;0.10;;;15.30;99.90;;;;;;4956845;28;20023;-72
2021/08/08 04:35:47;;;;;;;0.10;0.10;;;15.30;99.90;;;;;;4974015;28;20033;-71
2021/08/08 04:38:13;;;;;;;0.10;0.10;;;15.00;99.90;;;;;;4956599;28;20113;-72
2021/08/08 04:40:39;;;;;;;0.10;0.10;;;15.00;99.90;;;;;;4940817;28;20399;-71
2021/08/08 04:43:07;;;;;;;0.10;0.10;;;15.00;99.90;;;;;;4973821;28;20097;-71
2021/08/08 04:45:33;;;;;;;0.10;0.10;;;15.10;99.90;;;;;;4940556;28;20027;-71
2021/08/08 04:47:59;;;;;;;0.10;0.10;;;15.10;99.90;;;;;;4940624;28;20089;-71
2021/08/08 04:50:25;;;;;;;0.10;0.10;;;15.10;99.90;;;;;;4940906;28;20062;-71
2021/08/08 04:52:50;;;;;;;0.10;0.10;;;15.00;99.90;;;;;;4973678;28;20367;-72
2021/08/08 04:55:17;;;;;;;0.10;0.10;;;15.00;99.90;;;;;;4973858;28;20023;-71
2021/08/08 04:57:43;;;;;;;0.10;0.10;;;15.00;99.90;;;;;;4956495;28;20057;-72
2021/08/08 05:00:09;;;;;;;0.10;0.10;;;15.10;99.90;;;;;;4973825;28;20030;-72
2021/08/08 05:02:36;;;;;;;0.10;0.10;;;15.10;99.90;;;;;;4956254;28;20395;-71
2021/08/08 05:05:05;;;;;;;0.10;0.10;;;15.20;99.90;;;;;;4940256;28;20117;-71
2021/08/08 05:07:35;;;;;;;0.10;0.10;;;15.20;99.90;;;;;;4956242;28;20033;-72
2021/08/08 05:10:01;;;;;;;0.10;0.10;;;15.30;99.90;;;;;;4956135;28;20066;-71
2021/08/08 05:12:27;;;;;;;0.17;0.17;;;15.30;99.90;;;;;;4956193;28;20046;-72
2021/08/08 05:14:52;;;;;;;0.10;0.10;;;15.30;99.90;;;;;;4956032;28;20019;-72
2021/08/08 05:17:18;;;;;;;0.10;0.10;;;15.40;99.90;;;;;;4955990;28;20065;-72
2021/08/08 05:19:44;;;;;;;0.10;0.10;;;15.20;99.90;;;;;;4973363;28;20027;-72
2021/08/08 05:22:09;;;;;;;0.10;0.10;;;15.10;99.90;;;;;;4973135;28;20063;-72
2021/08/08 05:24:35;;;;;;;0.10;0.10;;;15.30;99.90;;;;;;4973339;28;20066;-72
2021/08/08 05:27:01;;;;;;;0.10;0.10;;;15.20;99.90;;;;;;4973358;28;20062;-71
2021/08/08 05:29:27;;;;;;;0.10;0.10;;;15.20;99.90;;;;;;4973327;28;20033;-72
2021/08/08 05:31:52;;;;;;;0.10;0.10;;;15.20;99.90;;;;;;4973251;28;20522;-71
2021/08/08 05:34:18;;;;;;;0.10;0.10;;;15.20;99.90;;;;;;4955370;28;20473;-72
2021/08/08 05:36:44;;;;;;;0.10;0.10;;;15.20;99.90;;;;;;4955787;28;20034;-72
2021/08/08 05:39:10;;;;;;;0.10;0.10;;;15.40;99.90;;;;;;4955740;28;20478;-71
2021/08/08 05:41:35;;;;;;;0.10;0.10;;;15.50;99.90;;;;;;4955739;28;20468;-72
2021/08/08 05:44:01;;;;;;;0.00;0.00;;;15.50;99.90;;;;;;4955768;28;20035;-71
2021/08/08 05:46:27;;;;;;;0.10;0.10;;;15.60;99.90;;;;;;4972979;28;20034;-71
2021/08/08 05:48:52;;;;;;;0.10;0.10;;;15.60;99.90;;;;;;4972540;28;20034;-72
2021/08/08 05:51:18;;;;;;;0.10;0.10;;;15.60;99.90;;;;;;4972881;28;20050;-72
2021/08/08 05:53:44;;;;;;;0.10;0.10;;;15.80;99.90;;;;;;4973055;28;20015;-72
2021/08/08 05:56:10;;;;;;;0.10;0.10;;;15.80;99.90;;;;;;4955849;28;20106;-72
2021/08/08 05:58:35;;;;;;;0.10;0.10;;;15.70;99.90;;;;;;4955632;28;20031;-72
2021/08/08 06:01:01;;;;;;;0.10;0.10;;;15.70;99.90;;;;;;4955492;28;20045;-72
2021/08/08 06:03:27;;;;;;;0.00;0.00;;;15.70;99.90;;;;;;4955542;28;20023;-71
2021/08/08 06:05:52;;;;;;;0.10;0.10;;;15.70;99.90;;;;;;4972884;28;20383;-72
2021/08/08 06:08:18;;;;;;;0.10;0.10;;;15.80;99.90;;;;;;4972819;28;20051;-72
2021/08/08 06:10:44;;;;;;;0.10;0.10;;;15.70;99.90;;;;;;4972957;28;20088;-72
2021/08/08 06:13:10;;;;;;;0.00;0.00;;;15.70;99.90;;;;;;4939383;28;20395;-72
2021/08/08 06:15:35;;;;;;;0.10;0.10;;;15.80;99.90;;;;;;4955334;28;20153;-72
2021/08/08 06:18:01;;;;;;;0.10;0.10;;;15.80;99.90;;;;;;4972704;28;20030;-72
2021/08/08 06:20:27;;;;;;;0.10;0.10;;;15.70;99.90;;;;;;4955506;28;20027;-72
2021/08/08 06:22:53;;;;;;;0.10;0.10;;;15.60;99.90;;;;;;4972679;28;20054;-71
2021/08/08 06:25:19;;;;;;;0.10;0.10;;;15.80;99.90;;;;;;4972596;28;20023;-72
2021/08/08 06:27:45;;;;;;;0.10;0.10;;;16.00;99.90;;;;;;4972770;28;20031;-71
2021/08/08 06:30:11;;;;;;;0.10;0.10;;;16.20;99.90;;;;;;4972414;28;20022;-72
2021/08/08 06:32:37;;;;;;;0.20;0.20;;;16.20;99.90;;;;;;4972559;28;20027;-72
2021/08/08 06:35:04;;;;;;;0.10;0.10;;;16.30;99.90;;;;;;4972376;28;20039;-72
2021/08/08 06:37:30;;;;;;;0.10;0.10;;;16.20;99.90;;;;;;4955308;28;20027;-72
2021/08/08 06:39:56;;;;;;;0.10;0.10;;;16.20;99.90;;;;;;4955059;28;20093;-71
2021/08/08 06:42:21;;;;;;;0.10;0.10;;;16.30;99.90;;;;;;4954985;28;20077;-72
2021/08/08 06:44:47;;;;;;;0.10;0.10;;;16.40;99.90;;;;;;4972437;28;20123;-72
2021/08/08 06:47:13;;;;;;;0.17;0.17;;;16.30;99.90;;;;;;4972382;28;20440;-72
2021/08/08 06:49:39;;;;;;;0.10;0.10;;;16.30;99.90;;;;;;4972535;28;20033;-73
2021/08/08 06:52:05;;;;;;;0.10;0.10;;;16.40;99.90;;;;;;4972420;28;20119;-73
2021/08/08 06:54:30;;;;;;;0.10;0.10;;;16.40;99.90;;;;;;4955281;28;20023;-72
2021/08/08 06:56:56;;;;;;;0.10;0.10;;;16.40;99.90;;;;;;4939197;28;20023;-72
2021/08/08 06:59:22;;;;;;;0.10;0.10;;;16.30;99.90;;;;;;4954725;28;20050;-73
2021/08/08 07:01:48;;;;;;;0.10;0.10;;;16.40;99.90;;;;;;4973949;28;20035;-72
2021/08/08 07:04:14;;;;;;;0.10;0.10;;;16.40;99.90;;;;;;4975781;28;20399;-73
2021/08/08 07:06:40;;;;;;;0.10;0.10;;;16.50;99.90;;;;;;4975915;28;20403;-72
2021/08/08 07:09:07;;;;;;;0.10;0.10;;;16.60;99.90;;;;;;4958275;28;20476;-72
2021/08/08 07:11:35;;;;;;;0.10;0.10;;;16.70;99.90;;;;;;4975685;28;20027;-73
2021/08/08 07:14:01;;;;;;;0.10;0.10;;;16.80;99.90;;;;;;4975588;28;20063;-73
2021/08/08 07:16:26;;;;;;;0.10;0.10;;;16.80;99.90;;;;;;4975761;28;20661;-73
2021/08/08 07:18:52;;;;;;;0.10;0.10;;;16.70;99.90;;;;;;4958197;28;20027;-73
2021/08/08 07:21:18;;;;;;;0.03;0.03;;;16.80;99.90;;;;;;4942010;28;20031;-73
2021/08/08 07:23:43;;;;;;;0.10;0.10;;;17.00;99.90;;;;;;4957961;28;20077;-73
2021/08/08 07:26:09;;;;;;;0.10;0.10;;;16.90;99.90;;;;;;4958056;28;20050;-73
2021/08/08 07:28:35;;;;;;;0.10;0.10;;;16.90;99.90;;;;;;4957911;28;20085;-73
2021/08/08 07:31:01;;;;;;;0.10;0.10;;;17.10;99.90;;;;;;4942170;28;20097;-73
2021/08/08 07:33:26;;;;;;;0.10;0.10;;;17.00;99.90;;;;;;4975124;28;20391;-73
2021/08/08 07:35:52;;;;;;;0.10;0.10;;;17.00;99.90;;;;;;4974973;28;20037;-73
2021/08/08 07:38:19;;;;;;;0.10;0.10;;;17.10;99.90;;;;;;4975438;28;20451;-73
2021/08/08 07:40:45;;;;;;;0.10;0.10;;;17.10;99.90;;;;;;4975298;28;20064;-73
2021/08/08 07:43:12;;;;;;;0.10;0.10;;;17.20;99.90;;;;;;4975212;28;20058;-73
2021/08/08 07:45:38;;;;;;;0.10;0.10;;;17.30;99.90;;;;;;4974941;28;20081;-73
2021/08/08 07:48:04;;;;;;;0.10;0.10;;;17.40;99.90;;;;;;4957812;28;20483;-73
2021/08/08 07:50:30;;;;;;;0.10;0.10;;;17.50;99.90;;;;;;4957670;28;20026;-72
2021/08/08 07:52:56;;;;;;;0.10;0.10;;;17.70;99.90;;;;;;4957643;28;20097;-73
2021/08/08 07:55:23;;;;;;;0.10;0.10;;;17.70;99.90;;;;;;4974883;28;20113;-73
2021/08/08 07:57:50;;;;;;;0.10;0.10;;;17.90;99.90;;;;;;4975045;28;20026;-73
2021/08/08 08:00:16;;;;;;;0.00;0.00;;;17.80;99.90;;;;;;4974835;28;20027;-73
2021/08/08 08:02:41;;;;;;;0.10;0.10;;;17.70;99.90;;;;;;4957403;28;20034;-73
2021/08/08 08:05:07;;;;;;;0.10;0.10;;;17.90;99.90;;;;;;4974242;28;20069;-73
2021/08/08 08:07:33;;;;;;;0.10;0.10;;;18.10;99.90;;;;;;4987863;28;20083;-73
2021/08/08 08:09:59;;;;;;;0.10;0.10;;;18.10;99.90;;;;;;4961671;28;20495;-73
2021/08/08 08:12:25;;;;;;;0.20;0.20;;;18.40;99.90;;;;;;4974058;28;20030;-73
2021/08/08 08:14:50;;;;;;;0.00;0.00;;;18.60;99.90;;;;;;4958626;28;20019;-73
2021/08/08 08:17:16;;;;;;;0.05;0.05;;;18.70;99.90;;;;;;4994060;28;20033;-73
2021/08/08 08:19:42;;;;;;;0.10;0.10;;;18.80;99.90;;;;;;4976707;28;20545;-73
2021/08/08 08:22:08;;;;;;;0.10;0.10;;;18.90;99.90;;;;;;4993799;28;20121;-74
2021/08/08 08:24:34;;;;;;;0.10;0.10;;;18.90;99.90;;;;;;4993778;28;20030;-74
2021/08/08 08:26:59;;;;;;;0.10;0.10;;;19.10;99.90;;;;;;4982688;28;20031;-73
2021/08/08 08:29:25;;;;;;;0.10;0.10;;;19.10;99.90;;;;;;4956863;28;20037;-73
2021/08/08 08:31:51;;;;;;;0.10;0.10;;;18.90;99.90;;;;;;4956855;28;20114;-74
2021/08/08 08:34:17;;;;;;;0.30;0.30;;;19.00;99.90;;;;;;4973956;28;20094;-73
2021/08/08 08:36:42;;;;;;;0.10;0.10;;;19.40;99.90;;;;;;4956761;28;20403;-74
2021/08/08 08:39:08;;;;;;;0.10;0.10;;;19.30;99.90;;;;;;4957063;28;20181;-74
2021/08/08 08:41:36;;;;;;;0.10;0.10;;;19.50;99.90;;;;;;4974077;28;20448;-74
2021/08/08 08:44:03;;;;;;;0.10;0.10;;;19.60;99.90;;;;;;4973956;28;20027;-74
2021/08/08 08:46:30;;;;;;;1.02;0.17;;;19.50;99.90;;;;;;4956527;28;20023;-74
2021/08/08 08:48:56;;;;;;;0.10;0.10;;;19.60;99.90;;;;;;4956699;28;20027;-73
2021/08/08 08:51:34;;;;;;;0.10;0.10;;;19.80;99.90;;;;;;4973708;28;20042;-74
2021/08/08 08:54:00;;;;;;;0.10;0.10;;;19.80;99.90;;;;;;4973872;28;20491;-74
2021/08/08 08:56:28;;;;;;;0.10;0.10;;;19.80;99.90;;;;;;4956382;28;20030;-74
2021/08/08 08:58:54;;;;;;;0.00;0.00;;;19.90;99.90;;;;;;4974052;28;20037;-74
2021/08/08 09:01:20;;;;;;;0.10;0.10;;;19.90;99.60;;;;;;4957450;28;20491;-74
2021/08/08 09:03:46;;;;;;;0.22;0.22;;;19.90;99.90;;;;;;4973668;28;20037;-74
2021/08/08 09:06:13;;;;;;;0.00;0.00;;;19.90;99.90;;;;;;4973422;28;20023;-74
2021/08/08 09:08:39;;;;;;;0.13;0.13;;;19.80;98.20;;;;;;4972907;28;20026;-74
2021/08/08 09:11:07;;;;;;;0.10;0.10;;;19.70;98.90;;;;;;4956123;28;20046;-73
2021/08/08 09:13:50;;;;;;;0.10;0.10;;;19.50;99.90;;;;;;4956047;28;20029;-74
2021/08/08 09:16:16;;;;;;;0.10;0.10;;;19.70;99.90;;;;;;4956023;28;20058;-73
2021/08/08 09:18:53;;;;;;;0.00;0.00;;;19.70;99.90;;;;;;4973599;28;20023;-74
2021/08/08 09:21:21;;;;;;;0.13;0.13;;;19.60;99.70;;;;;;4956064;28;20030;-74
2021/08/08 09:23:58;;;;;;;0.10;0.10;;;19.60;99.90;;;;;;4955374;28;20439;-73
2021/08/08 09:26:34;;;;;;;0.47;0.38;;;19.40;99.90;;;;;;4973483;28;20251;-74
2021/08/08 09:29:11;;;;;;;0.10;0.10;;;19.30;99.90;;;;;;4973389;28;20069;-74
2021/08/08 09:31:48;;;;;;;0.10;0.10;;;19.00;99.80;;;;;;4973049;28;20494;-74
2021/08/08 09:34:25;;;;;;;0.08;0.08;;;19.00;99.90;;;;;;4955935;28;20022;-74
2021/08/08 09:36:53;;;;;;;0.10;0.10;;;19.00;99.90;;;;;;4955876;28;20030;-74
2021/08/08 09:39:52;;;;;;;0.10;0.10;;;19.20;99.90;;;;;;4973313;28;20026;-74
2021/08/08 09:42:26;;;;;;;0.10;0.10;;;19.60;99.80;;;;;;4955585;28;20427;-74
2021/08/08 09:45:01;;;;;;;0.10;0.10;;;19.60;99.30;;;;;;4955729;28;20034;-74
2021/08/08 09:47:48;;;;;;;0.10;0.10;;;19.70;99.90;;;;;;4972918;28;20033;-74
2021/08/08 09:50:17;;;;;;;0.10;0.10;;;19.60;99.90;;;;;;4955770;28;20078;-74
2021/08/08 09:52:58;;;;;;;0.10;0.10;;;19.80;99.90;;;;;;4955637;28;20015;-73
2021/08/08 09:55:35;;;;;;;0.10;0.10;;;19.50;98.80;;;;;;4972952;28;20109;-74
2021/08/08 09:58:03;;;;;;;0.28;0.17;;;19.30;98.00;;;;;;4939831;28;20033;-73
2021/08/08 10:00:34;;;;;;;0.13;0.13;;;19.30;98.00;;;;;;4972787;28;20105;-73
2021/08/08 10:03:02;;;;;;;0.10;0.10;;;19.40;98.10;;;;;;4971215;28;20363;-73
2021/08/08 10:05:29;;;;;;;0.20;0.20;;;19.60;98.90;;;;;;4971991;28;20023;-74
2021/08/08 10:07:56;;;;;;;0.00;0.00;;;19.70;97.60;;;;;;4972724;28;20019;-74
2021/08/08 10:10:23;;;;;;;0.00;0.00;;;19.80;96.60;;;;;;4973656;28;20494;-73
2021/08/08 10:12:58;;;;;;;2.05;0.85;;;19.60;95.60;;;;;;4955387;28;20231;-74
2021/08/08 10:15:25;;;;;;;0.10;0.10;;;19.80;96.60;;;;;;4954397;28;20110;-74
2021/08/08 10:17:53;;;;;;;0.20;0.20;;;19.70;96.60;;;;;;4972740;28;20033;-77
2021/08/08 10:20:20;;;;;;;0.08;0.08;;;19.50;97.50;;;;;;4955400;28;20031;-74
2021/08/08 10:22:48;;;;;;;0.10;0.10;;;19.60;98.40;;;;;;4972534;28;20086;-74
2021/08/08 10:25:15;;;;;;;0.00;0.00;;;19.60;98.00;;;;;;4972820;28;20027;-73
2021/08/08 10:27:41;;;;;;;0.00;0.00;;;19.60;98.60;;;;;;4972992;28;20153;-74
2021/08/08 10:30:07;;;;;;;0.10;0.10;;;19.80;99.80;;;;;;4955593;28;20386;-74
2021/08/08 10:32:33;;;;;;;0.10;0.10;;;19.90;99.00;;;;;;4955453;28;20546;-74
2021/08/08 10:35:16;;;;;;;0.00;0.00;;;20.00;99.30;;;;;;4973242;28;20023;-74
2021/08/08 10:37:43;;;;;;;0.10;0.10;;;20.20;99.40;;;;;;4958914;28;20026;-74
2021/08/08 11:15:03;;;;;;;0.00;0.00;;;20.90;91.60;;;;;;4909030;29;20051;-90
2021/08/08 11:17:29;;;;;;;0.10;0.10;;;22.00;92.30;;;;;;4921597;29;20025;-90
2021/08/08 11:19:55;;;;;;;0.00;0.00;;;22.40;86.00;;;;;;4870514;29;20028;-91
2021/08/08 11:22:21;;;;;;;0.10;0.10;;;22.50;86.00;;;;;;4890343;29;20033;-89
2021/08/08 11:24:58;;;;;;;0.00;0.00;;;22.20;86.50;;;;;;4916562;29;20035;-88
2021/08/08 11:27:31;;;;;;;0.10;0.10;;;21.90;87.10;;;;;;4927074;23;20187;-75
2021/08/08 11:29:57;;;;;;;0.15;0.15;;;21.40;87.50;;;;;;4917644;29;20020;-75
2021/08/08 11:32:31;;;;;;;0.00;0.00;;;20.90;88.80;;;;;;4917054;29;20028;-75
2021/08/08 11:35:05;;;;;;;0.10;0.10;;;20.50;88.90;;;;;;4916618;29;20051;-75
2021/08/08 11:37:37;;;;;;;1.63;1.52;;;20.70;91.10;;;;;;4916688;29;20028;-75
2021/08/08 11:40:17;;;;;;;0.10;0.10;;;20.80;91.50;;;;;;4916571;29;20086;-75
2021/08/08 11:42:43;;;;;;;0.00;0.00;;;20.80;90.20;;;;;;4918340;29;20059;-75
2021/08/08 11:45:10;;;;;;;0.10;0.10;;;20.90;90.50;;;;;;4916506;29;20043;-75
2021/08/08 11:47:35;;;;;;;0.10;0.10;;;20.90;88.80;;;;;;4916178;29;20408;-75
2021/08/08 11:50:05;;;;;;;0.30;0.30;;;21.00;90.40;;;;;;4900311;29;20102;-75
2021/08/08 11:52:32;;;;;;;0.00;0.00;;;20.80;89.60;;;;;;4911118;29;20020;-75
2021/08/08 11:55:08;;;;;;;0.10;0.10;;;20.60;87.80;;;;;;4899737;29;20119;-75
2021/08/08 11:57:35;;;;;;;0.32;0.30;;;20.20;90.20;;;;;;4914388;29;20306;-75
2021/08/08 12:00:02;;;;;;;0.10;0.10;;;20.10;88.80;;;;;;4904384;29;20032;-75
2021/08/08 12:02:29;;;;;;;0.10;0.10;;;19.90;89.00;;;;;;4904302;29;20035;-75
2021/08/08 12:04:57;;;;;;;0.20;0.20;;;19.90;86.50;;;;;;4916111;29;20047;-75
2021/08/08 12:07:25;;;;;;;0.10;0.10;;;19.90;87.70;;;;;;4888261;29;20389;-75
2021/08/08 12:09:52;;;;;;;0.00;0.00;;;20.00;88.70;;;;;;4881358;29;20032;-75
2021/08/08 12:12:18;;;;;;;0.10;0.10;;;20.10;88.40;;;;;;4898494;29;20036;-75
2021/08/08 12:14:58;;;;;;;0.10;0.10;;;20.10;86.50;;;;;;4899772;29;20024;-75
2021/08/08 12:17:24;;;;;;;0.10;0.10;;;20.00;87.70;;;;;;4916167;29;20032;-75
2021/08/08 12:19:54;;;;;;;0.10;0.10;;;20.10;88.10;;;;;;4899776;29;20092;-75
2021/08/08 12:22:31;;;;;;;0.10;0.10;;;20.30;87.20;;;;;;4917179;29;20108;-75
2021/08/08 12:25:14;;;;;;;0.10;0.10;;;20.30;87.30;;;;;;4917298;29;20020;-75
2021/08/08 12:27:42;;;;;;;0.10;0.10;;;20.30;89.20;;;;;;4899736;29;20040;-75
2021/08/08 12:30:11;;;;;;;0.00;0.00;;;20.20;89.70;;;;;;4916931;29;20024;-75
2021/08/08 12:32:39;;;;;;;0.10;0.10;;;20.30;90.30;;;;;;4907547;29;20021;-75
2021/08/08 12:35:11;;;;;;;0.10;0.10;;;20.40;90.10;;;;;;4897840;29;20068;-75
2021/08/08 12:37:37;;;;;;;;;;;20.60;90.20;;;;;;4897018;29;20035;-73
2021/08/08 12:40:10;;;;;;;0.10;0.10;;;20.60;89.30;;;;;;4896634;29;19907;-73
2021/08/08 12:42:37;;;;;;;0.63;0.52;;;20.10;90.30;;;;;;4896710;29;20454;-75
2021/08/08 12:45:11;;;;;;;0.00;0.00;;;19.70;90.80;;;;;;4897553;29;20021;-73
2021/08/08 12:47:38;;;;;;;0.10;0.10;;;19.50;91.70;;;;;;4897570;29;20033;-73
2021/08/08 12:50:17;;;;;;;0.00;0.00;;;19.80;91.90;;;;;;4896296;29;20029;-73
2021/08/08 12:52:43;;;;;;;0.68;0.25;;;20.00;91.20;;;;;;4896451;29;20111;-73
2021/08/08 12:55:12;;;;;;;0.10;0.10;;;20.10;90.60;;;;;;4896276;29;20035;-73
2021/08/08 12:57:38;;;;;;;0.10;0.10;;;20.00;90.20;;;;;;4880623;29;20529;-73
2021/08/08 13:00:05;;;;;;;0.10;0.10;;;20.00;90.90;;;;;;4896313;29;20040;-73
2021/08/08 13:02:31;;;;;;;0.03;0.03;;;20.10;90.20;;;;;;4897745;29;20215;-73
2021/08/08 13:04:57;;;;;;;0.70;0.55;;;20.20;87.70;;;;;;4897292;29;20033;-75
2021/08/08 13:07:23;;;;;;;0.10;0.10;;;20.40;87.50;;;;;;4897373;29;20036;-73
2021/08/08 13:09:49;;;;;;;0.00;0.00;;;20.40;87.50;;;;;;4896897;29;20096;-73
2021/08/08 13:15:56;;;;;;;0.08;0.08;;;20.40;87.40;;;;;;4897256;29;20088;-73
2021/08/08 13:18:21;;;;;;;0.10;0.10;;;20.20;88.70;;;;;;4897130;29;20025;-73
2021/08/08 13:20:47;;;;;;;0.10;0.10;;;20.20;88.70;;;;;;4897103;29;20056;-73
2021/08/08 13:23:15;;;;;;;0.10;0.10;;;20.30;88.40;;;;;;4897142;29;20021;-73
2021/08/08 13:25:41;;;;;;;0.10;0.10;;;20.30;87.40;;;;;;4896865;29;20021;-73
2021/08/08 13:28:08;;;;;;;0.10;0.10;;;20.10;86.50;;;;;;4897100;29;20055;-74